Time;durP1;ratioP1;P1;durP2;ratioP2;P2;SDS_P1;SDS_P2;PMS_P1;PMS_P2;Temp;Humidity;BMP_temperature;BMP_pressure;BME280_temperature;BME280_humidity;BME280_pressure;Samples;Min_cycle;Max_cycle;Signal;HPM_P1;HPM_P2
2023/12/25 00:00:16;;;;;;;118.50;111.57;;;13.10;99.90;;;;;;5051155;28;20394;-73
2023/12/25 00:02:43;;;;;;;122.13;114.07;;;13.10;99.90;;;;;;5052941;28;20403;-72
2023/12/25 00:05:09;;;;;;;107.63;100.60;;;13.20;99.90;;;;;;5044161;28;20037;-72
2023/12/25 00:07:35;;;;;;;126.38;118.15;;;13.10;99.90;;;;;;5038653;28;20034;-73
2023/12/25 00:10:01;;;;;;;118.13;110.45;;;13.10;99.90;;;;;;5033994;28;20034;-72
2023/12/25 00:12:27;;;;;;;123.10;115.43;;;13.10;99.90;;;;;;5037530;28;20055;-73
2023/12/25 00:14:53;;;;;;;117.05;109.90;;;13.10;99.90;;;;;;5038400;28;20046;-72
2023/12/25 00:17:19;;;;;;;121.53;113.28;;;13.10;99.90;;;;;;5046548;28;20032;-72
2023/12/25 00:19:45;;;;;;;162.18;152.70;;;13.10;99.90;;;;;;5043184;28;20029;-72
2023/12/25 00:22:12;;;;;;;187.65;176.80;;;13.10;99.90;;;;;;5033861;28;20032;-73
2023/12/25 00:24:40;;;;;;;205.10;193.45;;;13.10;99.90;;;;;;5033588;28;20029;-73
2023/12/25 00:27:06;;;;;;;222.23;209.55;;;13.10;99.90;;;;;;5033830;28;20037;-72
2023/12/25 00:29:33;;;;;;;213.45;201.27;;;13.10;99.90;;;;;;5037467;28;20029;-73
2023/12/25 00:31:59;;;;;;;219.45;206.95;;;13.10;99.90;;;;;;5037455;28;20034;-72
2023/12/25 00:34:25;;;;;;;210.18;197.80;;;13.10;99.90;;;;;;5053228;28;20497;-73
2023/12/25 00:36:51;;;;;;;201.13;189.55;;;13.00;99.90;;;;;;5040188;28;20033;-72
2023/12/25 00:39:17;;;;;;;227.38;213.95;;;13.10;99.90;;;;;;5044452;28;20414;-72
2023/12/25 00:41:43;;;;;;;206.07;193.93;;;13.10;99.90;;;;;;5038770;28;20045;-73
2023/12/25 00:44:09;;;;;;;231.55;217.80;;;13.10;99.90;;;;;;5042381;28;20049;-72
2023/12/25 00:46:35;;;;;;;210.75;198.00;;;13.10;99.90;;;;;;5039308;28;20041;-72
2023/12/25 00:49:01;;;;;;;215.98;203.48;;;13.10;99.90;;;;;;5034527;28;20038;-72
2023/12/25 00:51:28;;;;;;;206.43;194.55;;;13.00;99.90;;;;;;5033639;28;20041;-72
2023/12/25 00:53:54;;;;;;;186.82;175.85;;;13.10;99.90;;;;;;5033200;28;20479;-72
2023/12/25 00:56:20;;;;;;;207.00;194.80;;;13.10;99.90;;;;;;5031898;28;20061;-72
2023/12/25 00:58:46;;;;;;;214.43;202.43;;;13.10;99.90;;;;;;5040163;28;20386;-72
2023/12/25 01:01:12;;;;;;;202.20;190.63;;;13.10;99.90;;;;;;5041306;28;20045;-72
2023/12/25 01:03:38;;;;;;;189.52;178.27;;;13.20;99.90;;;;;;5040298;28;20391;-72
2023/12/25 01:06:04;;;;;;;205.45;193.05;;;13.10;99.90;;;;;;5033232;28;20029;-73
2023/12/25 01:08:30;;;;;;;162.80;152.98;;;13.10;99.90;;;;;;5045981;28;20374;-72
2023/12/25 01:10:57;;;;;;;203.32;191.77;;;13.10;99.90;;;;;;5033271;28;20040;-72
2023/12/25 01:13:23;;;;;;;207.90;195.95;;;13.00;99.90;;;;;;5032909;28;20415;-72
2023/12/25 01:15:49;;;;;;;199.70;187.48;;;13.00;99.90;;;;;;5032520;28;20042;-72
2023/12/25 01:18:15;;;;;;;232.30;219.35;;;13.10;99.90;;;;;;5041285;28;20394;-72
2023/12/25 01:20:41;;;;;;;217.40;205.07;;;13.10;99.90;;;;;;5035051;28;20033;-72
2023/12/25 01:23:07;;;;;;;149.88;140.77;;;13.00;99.90;;;;;;5033228;28;20033;-72
2023/12/25 01:25:33;;;;;;;178.05;167.95;;;13.00;99.90;;;;;;5032621;28;20037;-72
2023/12/25 01:27:59;;;;;;;199.13;186.85;;;13.10;99.90;;;;;;5033782;28;20057;-72
2023/12/25 01:30:25;;;;;;;222.77;209.75;;;13.10;99.90;;;;;;5041972;28;20490;-72
2023/12/25 01:32:52;;;;;;;205.82;194.02;;;13.10;99.90;;;;;;5032293;28;20492;-72
2023/12/25 01:35:18;;;;;;;206.52;194.60;;;13.10;99.90;;;;;;5032729;28;20068;-72
2023/12/25 01:37:44;;;;;;;197.00;185.20;;;13.10;99.90;;;;;;5036937;28;20036;-72
2023/12/25 01:40:10;;;;;;;216.50;203.80;;;13.10;99.90;;;;;;5044361;28;20063;-73
2023/12/25 01:42:36;;;;;;;200.52;188.80;;;13.10;99.90;;;;;;5034439;28;20032;-72
2023/12/25 01:45:03;;;;;;;219.10;206.32;;;13.00;99.90;;;;;;5044843;28;20049;-71
2023/12/25 01:47:29;;;;;;;224.85;211.63;;;13.00;99.90;;;;;;5031444;28;20037;-72
2023/12/25 01:49:55;;;;;;;202.48;190.05;;;13.00;99.90;;;;;;5046194;28;20116;-72
2023/12/25 01:52:22;;;;;;;192.85;181.77;;;13.00;99.90;;;;;;5035669;28;20036;-72
2023/12/25 01:54:48;;;;;;;179.10;168.25;;;13.00;99.90;;;;;;5047170;28;20037;-72
2023/12/25 01:57:14;;;;;;;249.15;233.48;;;13.00;99.90;;;;;;5031226;28;20044;-73
2023/12/25 01:59:40;;;;;;;229.40;214.45;;;12.90;99.90;;;;;;5045515;28;20391;-73
2023/12/25 02:02:06;;;;;;;241.40;226.60;;;12.90;99.90;;;;;;5035685;28;20052;-72
2023/12/25 02:04:32;;;;;;;218.20;204.38;;;13.00;99.90;;;;;;5032432;28;20340;-72
2023/12/25 02:06:59;;;;;;;210.73;197.55;;;13.00;99.90;;;;;;5032030;28;20045;-72
2023/12/25 02:09:25;;;;;;;211.48;197.90;;;13.00;99.90;;;;;;5035212;28;20046;-73
2023/12/25 02:11:51;;;;;;;191.80;179.32;;;12.90;99.90;;;;;;5026631;28;20406;-72
2023/12/25 02:14:17;;;;;;;245.48;229.75;;;13.00;99.90;;;;;;5044571;28;20041;-72
2023/12/25 02:16:43;;;;;;;232.35;218.32;;;13.00;99.90;;;;;;5037473;28;20419;-72
2023/12/25 02:19:24;;;;;;;212.77;199.48;;;13.00;99.90;;;;;;5038443;28;20041;-71
2023/12/25 02:21:50;;;;;;;221.98;208.52;;;13.00;99.90;;;;;;5017795;28;20056;-72
2023/12/25 02:24:16;;;;;;;199.18;187.07;;;13.00;99.90;;;;;;5032001;28;20036;-72
2023/12/25 02:26:42;;;;;;;206.20;193.63;;;13.00;99.90;;;;;;5038069;28;20055;-72
2023/12/25 02:29:08;;;;;;;203.45;190.85;;;13.00;99.90;;;;;;5043790;28;20037;-72
2023/12/25 02:31:34;;;;;;;191.57;180.25;;;13.00;99.90;;;;;;5048320;28;20052;-72
2023/12/25 02:34:00;;;;;;;210.20;197.85;;;13.00;99.90;;;;;;5046835;28;20025;-72
2023/12/25 02:36:27;;;;;;;193.27;181.68;;;13.00;99.90;;;;;;5037424;28;20047;-72
2023/12/25 02:38:53;;;;;;;172.40;162.32;;;13.00;99.90;;;;;;5044529;28;20037;-72
2023/12/25 02:41:19;;;;;;;240.98;226.27;;;12.90;99.90;;;;;;5046319;28;20032;-73
2023/12/25 02:43:45;;;;;;;231.63;217.75;;;12.90;99.90;;;;;;5047193;28;20037;-72
2023/12/25 02:46:11;;;;;;;256.25;240.60;;;13.00;99.90;;;;;;5035782;28;20038;-73
2023/12/25 02:48:37;;;;;;;242.55;227.90;;;13.00;99.90;;;;;;5036868;28;20479;-72
2023/12/25 02:51:03;;;;;;;214.15;200.93;;;13.00;99.90;;;;;;5034012;28;20033;-72
2023/12/25 02:53:31;;;;;;;260.95;244.60;;;12.90;99.90;;;;;;5031873;28;20037;-72
2023/12/25 02:55:57;;;;;;;190.25;178.45;;;12.90;99.90;;;;;;5023876;28;20042;-72
2023/12/25 02:58:23;;;;;;;282.75;265.42;;;12.90;99.90;;;;;;5049146;28;20029;-72
2023/12/25 03:00:50;;;;;;;257.30;241.27;;;12.90;99.90;;;;;;5043068;28;20037;-72
2023/12/25 03:03:16;;;;;;;302.35;283.48;;;12.90;99.90;;;;;;5039523;28;20042;-72
2023/12/25 03:05:42;;;;;;;278.58;261.17;;;12.90;99.90;;;;;;5041583;28;20498;-72
2023/12/25 03:08:08;;;;;;;259.23;243.20;;;12.90;99.90;;;;;;5037059;28;20033;-72
2023/12/25 03:10:34;;;;;;;295.30;276.83;;;12.90;99.90;;;;;;5043716;28;20059;-72
2023/12/25 03:13:00;;;;;;;255.75;240.27;;;12.90;99.90;;;;;;5044803;28;20033;-72
2023/12/25 03:15:27;;;;;;;290.23;272.52;;;12.90;99.90;;;;;;5034644;28;20064;-72
2023/12/25 03:17:53;;;;;;;299.98;280.88;;;12.90;99.90;;;;;;5033646;28;20037;-72
2023/12/25 03:20:19;;;;;;;317.10;297.42;;;12.90;99.90;;;;;;5050645;28;20041;-72
2023/12/25 03:22:45;;;;;;;305.52;285.90;;;13.00;99.90;;;;;;5035343;28;20042;-72
2023/12/25 03:25:11;;;;;;;247.57;232.27;;;13.00;99.90;;;;;;5034831;28;20453;-72
2023/12/25 03:27:37;;;;;;;265.20;248.55;;;13.00;99.90;;;;;;5035543;28;20498;-72
2023/12/25 03:30:04;;;;;;;259.52;243.50;;;12.90;99.90;;;;;;5049878;28;20037;-72
2023/12/25 03:32:30;;;;;;;267.17;250.40;;;12.90;99.90;;;;;;5035041;28;20032;-72
2023/12/25 03:34:56;;;;;;;282.48;265.00;;;13.00;99.90;;;;;;5035048;28;20041;-73
2023/12/25 03:37:22;;;;;;;256.75;240.63;;;12.90;99.90;;;;;;5038968;28;20029;-72
2023/12/25 03:39:49;;;;;;;300.58;281.50;;;13.00;99.90;;;;;;5035188;28;20415;-72
2023/12/25 03:42:15;;;;;;;257.25;240.93;;;13.00;99.90;;;;;;5045919;28;20387;-72
2023/12/25 03:44:41;;;;;;;269.05;251.57;;;13.00;99.90;;;;;;5034709;28;20041;-72
2023/12/25 03:47:07;;;;;;;283.40;265.00;;;13.00;99.90;;;;;;5040764;28;20398;-72
2023/12/25 03:49:33;;;;;;;296.95;278.15;;;13.00;99.90;;;;;;5043792;28;20044;-72
2023/12/25 03:51:59;;;;;;;272.77;255.65;;;13.00;99.90;;;;;;5046077;28;20029;-72
2023/12/25 03:54:25;;;;;;;264.60;247.80;;;13.00;99.90;;;;;;5038296;28;20077;-72
2023/12/25 03:56:51;;;;;;;248.35;233.05;;;12.90;99.90;;;;;;5035829;28;20038;-72
2023/12/25 03:59:17;;;;;;;178.40;166.73;;;12.90;99.90;;;;;;5043306;28;20040;-72
2023/12/25 04:01:43;;;;;;;176.82;165.57;;;12.90;99.90;;;;;;5047481;28;20041;-72
2023/12/25 04:04:09;;;;;;;148.85;139.32;;;12.90;99.90;;;;;;5038602;28;20056;-72
2023/12/25 04:06:35;;;;;;;191.15;178.70;;;12.90;99.90;;;;;;5044478;28;20036;-72
2023/12/25 04:09:03;;;;;;;208.45;195.05;;;12.80;99.90;;;;;;5035675;28;20352;-72
2023/12/25 04:11:30;;;;;;;223.05;208.60;;;12.90;99.90;;;;;;5043986;28;20411;-72
2023/12/25 04:13:56;;;;;;;327.48;306.38;;;12.90;99.90;;;;;;5050462;28;20029;-72
2023/12/25 04:16:26;;;;;;;263.48;247.35;;;12.90;99.90;;;;;;5033874;28;20403;-72
2023/12/25 04:18:53;;;;;;;265.17;249.35;;;12.90;99.90;;;;;;5035193;28;20033;-72
2023/12/25 04:21:26;;;;;;;270.65;254.50;;;12.90;99.90;;;;;;5034179;28;20025;-72
2023/12/25 04:23:54;;;;;;;287.38;270.02;;;12.90;99.90;;;;;;5033115;28;20041;-72
2023/12/25 04:26:21;;;;;;;339.02;318.02;;;12.90;99.90;;;;;;5033525;28;20034;-72
2023/12/25 04:28:48;;;;;;;228.82;214.95;;;12.90;99.90;;;;;;5040776;28;20093;-72
2023/12/25 04:31:14;;;;;;;228.30;214.48;;;12.90;99.90;;;;;;5037116;28;20033;-72
2023/12/25 04:33:40;;;;;;;177.80;167.27;;;12.90;99.90;;;;;;5035026;28;20052;-72
2023/12/25 04:36:07;;;;;;;174.75;163.95;;;12.90;99.90;;;;;;5040216;28;20402;-72
2023/12/25 04:38:33;;;;;;;204.15;191.98;;;12.90;99.90;;;;;;5047879;28;20033;-72
2023/12/25 04:40:59;;;;;;;204.20;192.00;;;12.90;99.90;;;;;;5041067;28;20036;-72
2023/12/25 04:43:25;;;;;;;206.57;194.57;;;12.90;99.90;;;;;;5046383;28;20040;-72
2023/12/25 04:45:52;;;;;;;270.65;254.45;;;12.90;99.90;;;;;;5041876;28;20048;-72
2023/12/25 04:48:18;;;;;;;301.38;283.27;;;12.90;99.90;;;;;;5041525;28;20041;-72
2023/12/25 04:50:44;;;;;;;252.23;237.15;;;13.00;99.90;;;;;;5037355;28;20029;-72
2023/12/25 04:53:10;;;;;;;353.10;332.10;;;13.00;99.90;;;;;;5049907;28;20037;-72
2023/12/25 04:55:37;;;;;;;427.45;400.75;;;13.00;99.90;;;;;;5043793;28;20029;-72
2023/12/25 04:58:03;;;;;;;469.98;440.55;;;13.00;99.90;;;;;;5042708;28;20037;-72
2023/12/25 05:00:31;;;;;;;512.88;480.20;;;13.10;99.90;;;;;;5039376;28;20045;-72
2023/12/25 05:02:57;;;;;;;495.75;464.58;;;13.10;99.90;;;;;;5034508;28;20383;-72
2023/12/25 05:05:23;;;;;;;422.30;396.33;;;13.10;99.90;;;;;;5038036;28;20037;-72
2023/12/25 05:07:49;;;;;;;337.52;316.77;;;13.10;99.90;;;;;;5043450;28;20415;-71
2023/12/25 05:10:15;;;;;;;232.63;218.38;;;13.00;99.90;;;;;;5043271;28;20036;-73
2023/12/25 05:12:41;;;;;;;227.52;214.20;;;13.00;99.90;;;;;;5046227;28;20467;-72
2023/12/25 05:15:08;;;;;;;212.57;199.73;;;13.10;99.90;;;;;;5048126;28;20032;-71
2023/12/25 05:17:34;;;;;;;310.95;290.92;;;13.10;99.90;;;;;;5033391;28;20052;-72
2023/12/25 05:20:00;;;;;;;286.15;268.30;;;13.10;99.90;;;;;;5039721;28;20046;-72
2023/12/25 05:22:26;;;;;;;269.33;252.43;;;13.10;99.90;;;;;;5036725;28;20032;-72
2023/12/25 05:24:52;;;;;;;322.75;301.67;;;13.10;99.90;;;;;;5050535;28;20029;-72
2023/12/25 05:27:18;;;;;;;373.73;349.02;;;13.00;99.90;;;;;;5044503;28;20502;-72
2023/12/25 05:29:44;;;;;;;402.17;375.20;;;13.00;99.90;;;;;;5050498;28;20036;-72
2023/12/25 05:32:11;;;;;;;386.00;360.52;;;13.10;99.90;;;;;;5035401;28;20045;-72
2023/12/25 05:34:37;;;;;;;329.50;307.95;;;13.10;99.90;;;;;;5037521;28;20028;-73
2023/12/25 05:37:03;;;;;;;276.80;258.42;;;13.10;99.90;;;;;;5035307;28;20408;-72
2023/12/25 05:39:29;;;;;;;261.42;243.75;;;13.20;99.90;;;;;;5032795;28;20033;-72
2023/12/25 05:41:55;;;;;;;240.73;224.07;;;13.20;99.90;;;;;;5022893;28;20033;-72
2023/12/25 05:44:21;;;;;;;236.70;220.52;;;13.20;99.90;;;;;;5033888;28;20044;-71
2023/12/25 05:46:47;;;;;;;236.65;221.52;;;13.20;99.90;;;;;;5032821;28;20068;-73
2023/12/25 05:49:13;;;;;;;257.63;241.68;;;13.20;99.90;;;;;;5036810;28;20033;-72
2023/12/25 05:51:39;;;;;;;281.05;262.38;;;13.20;99.90;;;;;;5032551;28;20030;-72
2023/12/25 05:54:06;;;;;;;299.65;280.25;;;13.20;99.90;;;;;;5043487;28;20030;-73
2023/12/25 05:56:32;;;;;;;319.98;299.10;;;13.20;99.90;;;;;;5038618;28;20056;-72
2023/12/25 05:58:59;;;;;;;315.42;293.70;;;13.20;99.90;;;;;;5032560;28;20475;-72
2023/12/25 06:01:25;;;;;;;310.23;289.83;;;13.20;99.90;;;;;;5040832;28;20041;-72
2023/12/25 06:03:51;;;;;;;270.45;251.98;;;13.10;99.90;;;;;;5044668;28;20037;-73
2023/12/25 06:06:17;;;;;;;327.92;306.02;;;13.00;99.90;;;;;;5043507;28;20033;-72
2023/12/25 06:08:43;;;;;;;256.60;239.50;;;13.00;99.90;;;;;;5038343;28;20476;-72
2023/12/25 06:11:10;;;;;;;316.80;295.75;;;13.00;99.90;;;;;;5039066;28;20463;-72
2023/12/25 06:13:36;;;;;;;335.13;312.65;;;13.00;99.90;;;;;;5036471;28;20042;-73
2023/12/25 06:16:02;;;;;;;289.27;270.13;;;13.10;99.90;;;;;;5038868;28;20434;-72
2023/12/25 06:18:28;;;;;;;267.50;250.25;;;13.10;99.90;;;;;;5034194;28;20042;-73
2023/12/25 06:20:54;;;;;;;290.63;271.17;;;13.00;99.90;;;;;;5033975;28;20805;-72
2023/12/25 06:23:20;;;;;;;300.35;281.33;;;13.00;99.90;;;;;;5041394;28;20033;-72
2023/12/25 06:25:47;;;;;;;296.17;276.15;;;13.00;99.90;;;;;;5031789;28;20420;-72
2023/12/25 06:28:13;;;;;;;325.38;304.33;;;13.00;99.90;;;;;;5032563;28;20052;-72
2023/12/25 06:30:39;;;;;;;351.25;327.55;;;13.00;99.90;;;;;;5038188;28;20033;-73
2023/12/25 06:33:05;;;;;;;308.88;288.02;;;13.00;99.90;;;;;;5040861;28;20471;-73
2023/12/25 06:35:31;;;;;;;298.88;279.00;;;13.10;99.90;;;;;;5031326;28;20033;-73
2023/12/25 06:37:57;;;;;;;289.80;271.83;;;13.10;99.90;;;;;;5037471;28;20052;-73
2023/12/25 06:40:23;;;;;;;284.42;266.42;;;13.10;99.90;;;;;;5032219;28;20037;-73
2023/12/25 06:42:49;;;;;;;276.45;259.38;;;13.10;99.90;;;;;;5031959;28;20037;-72
2023/12/25 06:45:15;;;;;;;280.60;262.65;;;13.10;99.90;;;;;;5045444;28;20514;-73
2023/12/25 06:47:41;;;;;;;284.55;266.20;;;13.10;99.90;;;;;;5040730;28;20033;-73
2023/12/25 06:50:08;;;;;;;239.02;224.18;;;13.10;99.90;;;;;;5036227;28;20505;-72
2023/12/25 06:52:34;;;;;;;243.85;228.52;;;13.10;99.90;;;;;;5037051;28;20029;-72
2023/12/25 06:55:01;;;;;;;269.10;248.85;;;13.10;99.90;;;;;;5044268;28;20028;-72
2023/12/25 06:57:27;;;;;;;248.88;232.68;;;13.10;99.90;;;;;;5032187;28;20041;-72
2023/12/25 06:59:53;;;;;;;236.73;221.82;;;13.10;99.90;;;;;;5034019;28;20391;-72
2023/12/25 07:02:21;;;;;;;231.73;216.98;;;13.10;99.90;;;;;;5034554;28;20045;-73
2023/12/25 07:04:47;;;;;;;187.82;175.75;;;13.20;99.90;;;;;;5030846;28;20046;-73
2023/12/25 07:07:13;;;;;;;173.88;163.07;;;13.20;99.90;;;;;;5034996;28;20033;-73
2023/12/25 07:09:42;;;;;;;173.93;162.85;;;13.10;99.90;;;;;;5031287;28;20036;-72
2023/12/25 07:12:08;;;;;;;191.20;178.90;;;13.00;99.90;;;;;;5043708;28;20049;-72
2023/12/25 07:14:34;;;;;;;218.40;204.15;;;13.00;99.90;;;;;;5046629;28;20360;-72
2023/12/25 07:17:02;;;;;;;192.50;180.40;;;13.10;99.90;;;;;;5039218;28;20041;-73
2023/12/25 07:19:28;;;;;;;148.55;138.35;;;13.10;99.90;;;;;;5043072;28;20049;-73
2023/12/25 07:21:54;;;;;;;123.93;115.88;;;13.00;99.90;;;;;;5038566;28;20040;-73
2023/12/25 07:24:20;;;;;;;119.93;111.45;;;13.00;99.90;;;;;;5048582;28;20078;-73
2023/12/25 07:26:46;;;;;;;136.00;126.57;;;13.00;99.90;;;;;;5041134;28;20044;-73
2023/12/25 07:29:12;;;;;;;137.02;127.82;;;13.00;99.90;;;;;;5038425;28;20040;-72
2023/12/25 07:31:38;;;;;;;147.55;137.85;;;13.00;99.90;;;;;;5038525;28;20041;-72
2023/12/25 07:34:04;;;;;;;153.20;143.73;;;12.90;99.90;;;;;;5031401;28;20526;-72
2023/12/25 07:36:31;;;;;;;174.40;163.55;;;12.90;99.90;;;;;;5041321;28;20045;-72
2023/12/25 07:38:57;;;;;;;180.05;168.65;;;12.90;99.90;;;;;;5048228;28;20029;-72
2023/12/25 07:41:24;;;;;;;214.23;201.90;;;12.90;99.90;;;;;;5035315;28;20036;-72
2023/12/25 07:43:50;;;;;;;249.32;235.18;;;12.80;99.90;;;;;;5034953;28;20041;-72
2023/12/25 07:46:16;;;;;;;246.10;232.20;;;12.90;99.90;;;;;;5045681;28;20400;-72
2023/12/25 07:48:42;;;;;;;219.10;206.15;;;12.90;99.90;;;;;;5047415;28;20036;-72
2023/12/25 07:51:08;;;;;;;238.52;224.57;;;12.90;99.90;;;;;;5037945;28;20037;-72
2023/12/25 07:53:34;;;;;;;196.02;184.68;;;12.90;99.90;;;;;;5046322;28;20029;-72
2023/12/25 07:56:00;;;;;;;171.38;160.98;;;12.90;99.90;;;;;;5037682;28;20037;-72
2023/12/25 07:58:26;;;;;;;170.30;160.02;;;12.90;99.90;;;;;;5053622;28;20032;-72
2023/12/25 08:00:52;;;;;;;193.05;180.98;;;12.90;99.90;;;;;;5042874;28;20056;-72
2023/12/25 08:03:18;;;;;;;165.40;155.50;;;12.90;99.90;;;;;;5045708;28;20044;-71
2023/12/25 08:05:44;;;;;;;227.60;214.23;;;13.00;99.90;;;;;;5037796;28;20391;-76
2023/12/25 08:08:11;;;;;;;200.65;188.82;;;13.00;99.90;;;;;;5036096;28;20041;-76
2023/12/25 08:10:37;;;;;;;213.20;200.73;;;13.10;99.90;;;;;;5034688;28;20040;-77
2023/12/25 08:13:03;;;;;;;200.88;189.75;;;13.10;99.90;;;;;;5045919;28;20032;-68
2023/12/25 08:15:29;;;;;;;178.60;167.68;;;13.20;99.90;;;;;;5041840;28;20113;-66
2023/12/25 08:17:56;;;;;;;195.13;183.63;;;13.20;99.90;;;;;;5032167;28;20056;-71
2023/12/25 08:20:22;;;;;;;201.00;189.23;;;13.20;99.90;;;;;;5035501;28;20439;-72
2023/12/25 08:22:48;;;;;;;235.80;222.05;;;13.10;99.90;;;;;;5034796;28;20037;-71
2023/12/25 08:25:14;;;;;;;212.43;199.70;;;13.10;99.90;;;;;;5027022;28;20064;-73
2023/12/25 08:27:40;;;;;;;203.80;191.32;;;13.10;99.90;;;;;;5040942;28;20032;-72
2023/12/25 08:30:07;;;;;;;209.13;194.38;;;13.10;99.90;;;;;;5043339;28;20056;-72
2023/12/25 08:32:33;;;;;;;214.32;199.75;;;13.10;99.90;;;;;;5048660;28;20025;-73
2023/12/25 08:34:59;;;;;;;210.65;197.20;;;13.10;99.90;;;;;;5046606;28;20026;-72
2023/12/25 08:37:25;;;;;;;176.57;165.93;;;13.10;99.90;;;;;;5038595;28;20061;-72
2023/12/25 08:39:52;;;;;;;212.00;199.43;;;13.10;99.90;;;;;;5048304;28;20036;-72
2023/12/25 08:42:18;;;;;;;212.52;199.38;;;13.10;99.90;;;;;;5046633;28;20460;-73
2023/12/25 08:44:44;;;;;;;185.15;173.40;;;13.10;99.90;;;;;;5042910;28;20049;-72
2023/12/25 08:47:10;;;;;;;177.50;166.82;;;13.00;99.90;;;;;;5035967;28;20595;-71
2023/12/25 08:49:37;;;;;;;223.10;210.07;;;13.00;99.90;;;;;;5046465;28;20040;-72
2023/12/25 08:52:03;;;;;;;164.43;154.55;;;13.10;99.90;;;;;;5043940;28;20044;-72
2023/12/25 08:54:30;;;;;;;158.85;149.38;;;13.20;99.90;;;;;;5051553;28;20032;-71
2023/12/25 08:56:57;;;;;;;205.90;193.55;;;13.20;99.90;;;;;;5040986;28;20407;-72
2023/12/25 08:59:23;;;;;;;198.05;185.90;;;13.30;99.90;;;;;;5042222;28;20394;-72
2023/12/25 09:01:50;;;;;;;199.90;188.13;;;13.20;99.90;;;;;;5042441;28;20036;-70
2023/12/25 09:04:16;;;;;;;190.77;179.73;;;13.20;99.90;;;;;;5046465;28;20115;-72
2023/12/25 09:06:42;;;;;;;175.63;165.00;;;13.20;99.90;;;;;;5046530;28;20025;-72
2023/12/25 09:09:10;;;;;;;197.63;185.38;;;13.30;99.90;;;;;;5037980;28;20025;-72
2023/12/25 09:11:36;;;;;;;180.23;169.57;;;13.30;99.90;;;;;;5040461;28;20045;-72
2023/12/25 09:14:03;;;;;;;192.07;180.65;;;13.30;99.90;;;;;;5033609;28;20037;-73
2023/12/25 09:16:29;;;;;;;196.77;184.98;;;13.30;99.90;;;;;;5045983;28;20046;-72
2023/12/25 09:18:55;;;;;;;198.98;186.63;;;13.30;99.90;;;;;;5053090;28;20025;-72
2023/12/25 09:21:21;;;;;;;193.20;181.82;;;13.30;99.90;;;;;;5040545;28;20032;-72
2023/12/25 09:23:48;;;;;;;225.85;212.73;;;13.30;99.90;;;;;;5021916;28;20048;-72
2023/12/25 09:26:20;;;;;;;200.77;188.57;;;13.30;99.90;;;;;;5039390;28;20490;-72
2023/12/25 09:28:47;;;;;;;222.82;210.18;;;13.30;99.90;;;;;;5033473;28;20029;-72
2023/12/25 09:31:13;;;;;;;263.00;247.40;;;13.30;99.90;;;;;;5045896;28;20052;-70
2023/12/25 09:33:40;;;;;;;260.85;245.48;;;13.20;99.90;;;;;;5034106;28;20040;-71
2023/12/25 09:36:09;;;;;;;287.73;270.90;;;13.30;99.90;;;;;;5036307;28;20050;-72
2023/12/25 09:38:35;;;;;;;304.38;287.40;;;13.20;99.90;;;;;;5034670;28;20041;-71
2023/12/25 09:41:01;;;;;;;255.38;240.63;;;13.20;99.90;;;;;;5034638;28;20963;-72
2023/12/25 09:43:27;;;;;;;309.35;291.05;;;13.30;99.90;;;;;;5046076;28;20037;-72
2023/12/25 09:45:53;;;;;;;305.63;287.50;;;13.30;99.90;;;;;;5046277;28;21571;-71
2023/12/25 09:48:19;;;;;;;320.15;300.92;;;13.20;99.90;;;;;;5035785;28;20048;-72
2023/12/25 09:50:45;;;;;;;383.20;360.30;;;13.30;99.90;;;;;;5031751;28;20040;-71
2023/12/25 09:53:12;;;;;;;314.92;296.63;;;13.40;99.90;;;;;;5048536;28;20494;-71
2023/12/25 09:55:38;;;;;;;254.85;240.05;;;13.30;99.90;;;;;;5040244;28;20045;-74
2023/12/25 09:58:10;;;;;;;450.27;423.20;;;13.40;99.90;;;;;;5037122;28;20476;-72
2023/12/25 10:00:36;;;;;;;378.05;356.38;;;13.50;99.90;;;;;;5029936;28;20104;-72
2023/12/25 10:03:03;;;;;;;347.42;327.83;;;13.50;99.90;;;;;;5037154;28;20518;-72
2023/12/25 10:05:29;;;;;;;258.40;243.35;;;13.50;99.90;;;;;;5032277;28;20356;-73
2023/12/25 10:07:55;;;;;;;259.33;244.18;;;13.50;99.90;;;;;;5033417;28;20032;-82
2023/12/25 10:10:28;;;;;;;299.55;282.10;;;13.50;99.90;;;;;;5036717;28;20037;-75
2023/12/25 10:12:55;;;;;;;278.02;261.00;;;13.60;99.90;;;;;;5036381;28;20025;-73
2023/12/25 10:15:21;;;;;;;258.02;242.40;;;13.70;99.90;;;;;;5026067;28;20046;-72
2023/12/25 10:17:47;;;;;;;270.80;254.93;;;13.80;99.90;;;;;;5041589;28;20052;-72
2023/12/25 10:20:20;;;;;;;682.95;422.58;;;13.90;99.90;;;;;;5039816;28;20037;-74
2023/12/25 10:22:46;;;;;;;257.95;243.55;;;13.90;99.90;;;;;;5046917;28;20502;-72
2023/12/25 10:25:13;;;;;;;1999.90;999.90;;;13.90;99.90;;;;;;5050005;28;20028;-72
2023/12/25 10:27:41;;;;;;;1999.90;999.90;;;13.90;99.90;;;;;;5032182;28;20036;-72
2023/12/25 10:30:22;;;;;;;1999.90;999.90;;;14.00;99.90;;;;;;5031497;28;20052;-72
2023/12/25 10:32:49;;;;;;;1999.90;999.90;;;14.00;99.90;;;;;;5048674;28;20037;-69
2023/12/25 10:35:18;;;;;;;1999.90;999.90;;;14.00;99.90;;;;;;5036511;28;20467;-75
2023/12/25 10:37:45;;;;;;;1999.90;999.90;;;14.00;99.90;;;;;;5047742;28;20037;-74
2023/12/25 10:40:18;;;;;;;1999.90;999.90;;;14.00;99.90;;;;;;5037991;28;20045;-69
2023/12/25 10:42:47;;;;;;;1574.15;819.83;;;14.10;99.90;;;;;;5034046;28;20052;-70
2023/12/25 10:45:19;;;;;;;1594.90;837.45;;;14.10;99.90;;;;;;5031760;28;20046;-68
2023/12/25 10:47:46;;;;;;;1999.90;999.90;;;14.10;99.90;;;;;;5036830;28;20047;-71
2023/12/25 10:50:12;;;;;;;1999.90;999.90;;;14.20;99.90;;;;;;5020178;28;20040;-69
2023/12/25 10:52:39;;;;;;;1999.90;999.90;;;14.20;99.90;;;;;;5033407;28;20033;-68
2023/12/25 10:55:05;;;;;;;1999.90;999.90;;;14.30;99.90;;;;;;5036781;28;20025;-72
2023/12/25 10:57:31;;;;;;;1999.90;999.90;;;14.10;99.90;;;;;;5034014;28;20069;-73
2023/12/25 10:59:57;;;;;;;1999.90;999.90;;;14.00;99.90;;;;;;5031409;28;20423;-74
2023/12/25 11:02:23;;;;;;;1999.90;999.90;;;13.90;99.90;;;;;;5028313;28;20053;-72
2023/12/25 11:04:49;;;;;;;1999.90;999.90;;;13.90;99.90;;;;;;5041166;28;20068;-73
2023/12/25 11:07:17;;;;;;;1999.90;999.90;;;13.90;99.90;;;;;;5030727;28;20033;-72
2023/12/25 11:09:45;;;;;;;1999.90;999.90;;;13.90;99.90;;;;;;5026488;28;20593;-72
2023/12/25 11:12:11;;;;;;;1999.90;999.90;;;14.00;99.90;;;;;;5026731;28;20045;-73
2023/12/25 11:14:37;;;;;;;1999.90;999.90;;;13.90;99.90;;;;;;5022108;28;20033;-72
2023/12/25 11:17:04;;;;;;;1999.90;999.90;;;14.00;99.90;;;;;;5036867;28;20041;-73
2023/12/25 11:19:30;;;;;;;1999.90;999.90;;;13.90;99.90;;;;;;5042108;28;20520;-73
2023/12/25 11:21:56;;;;;;;1999.90;999.90;;;13.90;99.90;;;;;;5049781;28;20036;-72
2023/12/25 11:24:27;;;;;;;1999.90;999.90;;;13.90;99.90;;;;;;5036182;28;20025;-72
2023/12/25 11:27:02;;;;;;;1999.90;999.90;;;13.90;99.90;;;;;;5042079;28;20033;-72
2023/12/25 11:29:30;;;;;;;1999.90;999.90;;;13.90;99.90;;;;;;5041592;28;20463;-73
2023/12/25 11:31:56;;;;;;;1999.90;999.90;;;14.00;99.90;;;;;;5025696;28;20037;-74
2023/12/25 11:34:23;;;;;;;1999.90;999.90;;;13.90;99.90;;;;;;5027277;28;20604;-73
2023/12/25 11:36:51;;;;;;;1999.90;999.90;;;13.90;99.90;;;;;;5037987;28;20041;-73
2023/12/25 11:39:18;;;;;;;1999.90;999.90;;;13.90;99.90;;;;;;5041623;28;20388;-72
2023/12/25 11:41:48;;;;;;;1999.90;999.90;;;13.90;99.90;;;;;;5037856;28;20025;-73
2023/12/25 11:44:17;;;;;;;1999.90;999.90;;;14.00;99.90;;;;;;5033417;28;20064;-72
2023/12/25 11:46:47;;;;;;;1999.90;999.90;;;13.90;99.90;;;;;;5032658;28;20380;-73
2023/12/25 11:49:14;;;;;;;1999.90;999.90;;;13.80;99.90;;;;;;5035352;28;20042;-72
2023/12/25 11:51:45;;;;;;;1999.90;999.90;;;13.90;99.90;;;;;;5044772;28;20485;-72
2023/12/25 11:54:11;;;;;;;;;;;13.80;99.90;;;;;;5053138;28;20032;-73
2023/12/25 11:56:38;;;;;;;1999.90;999.90;;;13.80;99.90;;;;;;5048491;28;19920;-72
2023/12/25 11:59:04;;;;;;;1999.90;999.90;;;13.80;99.90;;;;;;5053304;28;20052;-73
2023/12/25 12:01:30;;;;;;;1999.90;999.90;;;13.80;99.90;;;;;;5040313;28;20403;-72
2023/12/25 12:03:57;;;;;;;1999.90;999.90;;;13.80;99.90;;;;;;5034233;28;20033;-72